sensor_id;sensor_type;location;lat;lon;timestamp;temperature;humidity
7399;DHT22;3740;50.700;7.184;2022-12-20T00:01:21;11.70;99.90
7399;DHT22;3740;50.700;7.184;2022-12-20T00:03:49;11.60;99.90
7399;DHT22;3740;50.700;7.184;2022-12-20T00:06:15;11.60;99.90
7399;DHT22;3740;50.700;7.184;2022-12-20T00:08:41;11.40;99.90
7399;DHT22;3740;50.700;7.184;2022-12-20T00:11:09;11.40;99.90
7399;DHT22;3740;50.700;7.184;2022-12-20T00:13:35;11.30;99.90
7399;DHT22;3740;50.700;7.184;2022-12-20T00:16:14;11.20;99.90
7399;DHT22;3740;50.700;7.184;2022-12-20T00:18:41;10.80;99.90
7399;DHT22;3740;50.700;7.184;2022-12-20T00:21:09;10.80;99.90
7399;DHT22;3740;50.700;7.184;2022-12-20T00:23:36;10.70;99.90
7399;DHT22;3740;50.700;7.184;2022-12-20T00:28:34;10.50;99.90
7399;DHT22;3740;50.700;7.184;2022-12-20T00:31:01;10.10;99.90
7399;DHT22;3740;50.700;7.184;2022-12-20T00:33:27;10.00;99.90
7399;DHT22;3740;50.700;7.184;2022-12-20T00:35:56;10.10;99.90
7399;DHT22;3740;50.700;7.184;2022-12-20T00:38:23;9.90;99.90
7399;DHT22;3740;50.700;7.184;2022-12-20T00:41:09;9.90;99.90
7399;DHT22;3740;50.700;7.184;2022-12-20T00:43:34;9.90;99.90
7399;DHT22;3740;50.700;7.184;2022-12-20T00:46:01;9.90;99.90
7399;DHT22;3740;50.700;7.184;2022-12-20T00:48:28;10.00;99.90
7399;DHT22;3740;50.700;7.184;2022-12-20T00:51:20;10.00;99.90
7399;DHT22;3740;50.700;7.184;2022-12-20T00:53:46;10.00;99.90
7399;DHT22;3740;50.700;7.184;2022-12-20T00:56:12;10.10;99.90
7399;DHT22;3740;50.700;7.184;2022-12-20T00:58:40;10.10;99.90
7399;DHT22;3740;50.700;7.184;2022-12-20T01:01:20;10.20;99.90
7399;DHT22;3740;50.700;7.184;2022-12-20T01:03:46;10.10;99.90
7399;DHT22;3740;50.700;7.184;2022-12-20T01:06:12;10.10;99.90
7399;DHT22;3740;50.700;7.184;2022-12-20T01:08:38;10.00;99.90
7399;DHT22;3740;50.700;7.184;2022-12-20T01:11:16;9.90;99.90
7399;DHT22;3740;50.700;7.184;2022-12-20T01:13:44;9.70;99.90
7399;DHT22;3740;50.700;7.184;2022-12-20T01:16:25;9.70;99.90
7399;DHT22;3740;50.700;7.184;2022-12-20T01:18:52;9.80;99.90
7399;DHT22;3740;50.700;7.184;2022-12-20T01:21:21;9.70;99.90
7399;DHT22;3740;50.700;7.184;2022-12-20T01:23:47;9.60;99.90
7399;DHT22;3740;50.700;7.184;2022-12-20T01:26:15;9.50;99.90
7399;DHT22;3740;50.700;7.184;2022-12-20T01:28:44;9.40;99.90
7399;DHT22;3740;50.700;7.184;2022-12-20T01:31:12;9.40;99.90
7399;DHT22;3740;50.700;7.184;2022-12-20T01:33:38;9.40;99.90
7399;DHT22;3740;50.700;7.184;2022-12-20T01:36:06;9.30;99.90
7399;DHT22;3740;50.700;7.184;2022-12-20T01:38:33;9.30;99.90
7399;DHT22;3740;50.700;7.184;2022-12-20T01:41:00;9.30;99.90
7399;DHT22;3740;50.700;7.184;2022-12-20T01:43:53;9.30;99.90
7399;DHT22;3740;50.700;7.184;2022-12-20T01:46:22;9.30;99.90
7399;DHT22;3740;50.700;7.184;2022-12-20T01:49:16;9.30;99.90
7399;DHT22;3740;50.700;7.184;2022-12-20T01:51:46;9.30;99.90
7399;DHT22;3740;50.700;7.184;2022-12-20T01:54:18;9.40;99.90
7399;DHT22;3740;50.700;7.184;2022-12-20T01:56:50;9.40;99.90
7399;DHT22;3740;50.700;7.184;2022-12-20T01:59:18;9.30;99.90
7399;DHT22;3740;50.700;7.184;2022-12-20T02:01:44;9.30;99.90
7399;DHT22;3740;50.700;7.184;2022-12-20T02:04:10;9.40;99.90
7399;DHT22;3740;50.700;7.184;2022-12-20T02:06:36;9.40;99.90
7399;DHT22;3740;50.700;7.184;2022-12-20T02:09:03;9.40;99.90
7399;DHT22;3740;50.700;7.184;2022-12-20T02:17:16;9.30;99.90
7399;DHT22;3740;50.700;7.184;2022-12-20T02:20:02;9.20;99.90
7399;DHT22;3740;50.700;7.184;2022-12-20T02:22:51;9.10;99.90
7399;DHT22;3740;50.700;7.184;2022-12-20T02:25:36;8.80;99.90
7399;DHT22;3740;50.700;7.184;2022-12-20T02:28:31;8.90;99.90
7399;DHT22;3740;50.700;7.184;2022-12-20T02:31:09;9.00;99.90
7399;DHT22;3740;50.700;7.184;2022-12-20T02:33:36;9.00;99.90
7399;DHT22;3740;50.700;7.184;2022-12-20T02:36:23;9.10;99.90
7399;DHT22;3740;50.700;7.184;2022-12-20T02:38:50;9.20;99.90
7399;DHT22;3740;50.700;7.184;2022-12-20T02:41:20;9.20;99.90
7399;DHT22;3740;50.700;7.184;2022-12-20T02:43:53;9.30;99.90
7399;DHT22;3740;50.700;7.184;2022-12-20T02:46:38;9.30;99.90
7399;DHT22;3740;50.700;7.184;2022-12-20T02:49:09;9.40;99.90
7399;DHT22;3740;50.700;7.184;2022-12-20T02:51:36;9.50;99.90
7399;DHT22;3740;50.700;7.184;2022-12-20T02:54:03;9.50;99.90
7399;DHT22;3740;50.700;7.184;2022-12-20T02:56:42;9.60;99.90
7399;DHT22;3740;50.700;7.184;2022-12-20T02:59:14;9.60;99.90
7399;DHT22;3740;50.700;7.184;2022-12-20T03:01:51;9.70;99.90
7399;DHT22;3740;50.700;7.184;2022-12-20T03:04:20;9.70;99.90
7399;DHT22;3740;50.700;7.184;2022-12-20T03:06:58;9.80;99.90
7399;DHT22;3740;50.700;7.184;2022-12-20T03:09:24;9.80;99.90
7399;DHT22;3740;50.700;7.184;2022-12-20T03:11:50;10.00;99.90
7399;DHT22;3740;50.700;7.184;2022-12-20T03:14:15;10.10;99.90
7399;DHT22;3740;50.700;7.184;2022-12-20T03:16:41;10.10;99.90
7399;DHT22;3740;50.700;7.184;2022-12-20T03:19:06;10.20;99.90
7399;DHT22;3740;50.700;7.184;2022-12-20T03:21:32;10.30;99.90
7399;DHT22;3740;50.700;7.184;2022-12-20T03:23:57;10.40;99.90
7399;DHT22;3740;50.700;7.184;2022-12-20T03:26:23;10.50;99.90
7399;DHT22;3740;50.700;7.184;2022-12-20T03:28:48;10.70;99.90
7399;DHT22;3740;50.700;7.184;2022-12-20T03:31:14;10.90;99.90
7399;DHT22;3740;50.700;7.184;2022-12-20T03:33:39;11.00;99.90
7399;DHT22;3740;50.700;7.184;2022-12-20T03:36:05;11.00;99.90
7399;DHT22;3740;50.700;7.184;2022-12-20T03:38:31;11.10;99.90
7399;DHT22;3740;50.700;7.184;2022-12-20T03:40:56;11.10;99.90
7399;DHT22;3740;50.700;7.184;2022-12-20T03:43:22;11.20;99.90
7399;DHT22;3740;50.700;7.184;2022-12-20T03:45:47;11.20;99.90
7399;DHT22;3740;50.700;7.184;2022-12-20T03:48:13;11.10;99.90
7399;DHT22;3740;50.700;7.184;2022-12-20T03:50:38;11.10;99.90
7399;DHT22;3740;50.700;7.184;2022-12-20T03:53:04;11.10;99.90
7399;DHT22;3740;50.700;7.184;2022-12-20T03:55:30;11.10;99.90
7399;DHT22;3740;50.700;7.184;2022-12-20T03:57:55;11.20;99.90
7399;DHT22;3740;50.700;7.184;2022-12-20T04:00:21;11.20;99.90
7399;DHT22;3740;50.700;7.184;2022-12-20T04:02:46;11.20;99.90
7399;DHT22;3740;50.700;7.184;2022-12-20T04:05:12;11.30;99.90
7399;DHT22;3740;50.700;7.184;2022-12-20T04:07:37;11.30;99.90
7399;DHT22;3740;50.700;7.184;2022-12-20T04:10:03;11.40;99.90
7399;DHT22;3740;50.700;7.184;2022-12-20T04:12:29;11.40;99.90
7399;DHT22;3740;50.700;7.184;2022-12-20T04:14:54;11.30;99.90
7399;DHT22;3740;50.700;7.184;2022-12-20T04:17:20;11.30;99.90
7399;DHT22;3740;50.700;7.184;2022-12-20T04:19:46;11.30;99.90
7399;DHT22;3740;50.700;7.184;2022-12-20T04:22:11;11.30;99.90
7399;DHT22;3740;50.700;7.184;2022-12-20T04:24:37;11.40;99.90
7399;DHT22;3740;50.700;7.184;2022-12-20T04:27:02;11.40;99.90
7399;DHT22;3740;50.700;7.184;2022-12-20T04:29:28;11.40;99.90
7399;DHT22;3740;50.700;7.184;2022-12-20T04:31:54;11.40;99.90
7399;DHT22;3740;50.700;7.184;2022-12-20T04:34:19;11.40;99.90
7399;DHT22;3740;50.700;7.184;2022-12-20T04:36:45;11.40;99.90
7399;DHT22;3740;50.700;7.184;2022-12-20T04:39:10;11.40;99.90
7399;DHT22;3740;50.700;7.184;2022-12-20T04:41:36;11.30;99.90
7399;DHT22;3740;50.700;7.184;2022-12-20T04:44:01;11.30;99.90
7399;DHT22;3740;50.700;7.184;2022-12-20T04:46:27;11.40;99.90
7399;DHT22;3740;50.700;7.184;2022-12-20T04:48:53;11.50;99.90
7399;DHT22;3740;50.700;7.184;2022-12-20T04:51:18;11.50;99.90
7399;DHT22;3740;50.700;7.184;2022-12-20T04:53:44;11.50;99.90
7399;DHT22;3740;50.700;7.184;2022-12-20T04:56:20;11.50;99.90
7399;DHT22;3740;50.700;7.184;2022-12-20T04:58:48;11.40;99.90
7399;DHT22;3740;50.700;7.184;2022-12-20T05:01:15;11.40;99.90
7399;DHT22;3740;50.700;7.184;2022-12-20T05:03:40;11.50;99.90
7399;DHT22;3740;50.700;7.184;2022-12-20T05:06:07;11.40;99.90
7399;DHT22;3740;50.700;7.184;2022-12-20T05:08:33;11.30;99.90
7399;DHT22;3740;50.700;7.184;2022-12-20T05:10:59;11.30;99.90
7399;DHT22;3740;50.700;7.184;2022-12-20T05:13:24;11.20;99.90
7399;DHT22;3740;50.700;7.184;2022-12-20T05:15:51;11.10;99.90
7399;DHT22;3740;50.700;7.184;2022-12-20T05:18:17;11.10;99.90
7399;DHT22;3740;50.700;7.184;2022-12-20T05:20:43;11.00;99.90
7399;DHT22;3740;50.700;7.184;2022-12-20T05:23:10;11.00;99.90
7399;DHT22;3740;50.700;7.184;2022-12-20T05:25:54;11.00;99.90
7399;DHT22;3740;50.700;7.184;2022-12-20T05:28:39;10.90;99.90
7399;DHT22;3740;50.700;7.184;2022-12-20T05:31:04;10.90;99.90
7399;DHT22;3740;50.700;7.184;2022-12-20T05:33:30;10.80;99.90
7399;DHT22;3740;50.700;7.184;2022-12-20T05:35:56;10.90;99.90
7399;DHT22;3740;50.700;7.184;2022-12-20T05:38:22;10.80;99.90
7399;DHT22;3740;50.700;7.184;2022-12-20T05:40:49;10.90;99.90
7399;DHT22;3740;50.700;7.184;2022-12-20T05:43:16;11.00;99.90
7399;DHT22;3740;50.700;7.184;2022-12-20T05:45:49;11.00;99.90
7399;DHT22;3740;50.700;7.184;2022-12-20T05:48:16;11.00;99.90
7399;DHT22;3740;50.700;7.184;2022-12-20T05:50:43;10.90;99.90
7399;DHT22;3740;50.700;7.184;2022-12-20T05:53:13;10.90;99.90
7399;DHT22;3740;50.700;7.184;2022-12-20T05:55:50;10.90;99.90
7399;DHT22;3740;50.700;7.184;2022-12-20T05:58:16;10.90;99.90
7399;DHT22;3740;50.700;7.184;2022-12-20T06:00:42;10.90;99.90
7399;DHT22;3740;50.700;7.184;2022-12-20T06:03:09;11.00;99.90
7399;DHT22;3740;50.700;7.184;2022-12-20T06:05:36;11.00;99.90
7399;DHT22;3740;50.700;7.184;2022-12-20T06:08:06;11.00;99.90
7399;DHT22;3740;50.700;7.184;2022-12-20T06:10:32;11.10;99.90
7399;DHT22;3740;50.700;7.184;2022-12-20T06:13:00;11.20;99.90
7399;DHT22;3740;50.700;7.184;2022-12-20T06:15:25;11.30;99.90
7399;DHT22;3740;50.700;7.184;2022-12-20T06:17:51;11.30;99.90
7399;DHT22;3740;50.700;7.184;2022-12-20T06:20:16;11.30;99.90
7399;DHT22;3740;50.700;7.184;2022-12-20T06:22:42;11.30;99.90
7399;DHT22;3740;50.700;7.184;2022-12-20T06:25:08;11.20;99.90
7399;DHT22;3740;50.700;7.184;2022-12-20T06:27:35;11.20;99.90
7399;DHT22;3740;50.700;7.184;2022-12-20T06:30:01;11.20;99.90
7399;DHT22;3740;50.700;7.184;2022-12-20T06:32:26;11.30;99.90
7399;DHT22;3740;50.700;7.184;2022-12-20T06:34:52;11.30;99.90
7399;DHT22;3740;50.700;7.184;2022-12-20T06:37:17;11.20;99.90
7399;DHT22;3740;50.700;7.184;2022-12-20T06:39:43;11.10;99.90
7399;DHT22;3740;50.700;7.184;2022-12-20T06:42:08;11.00;99.90
7399;DHT22;3740;50.700;7.184;2022-12-20T06:44:34;10.90;99.90
7399;DHT22;3740;50.700;7.184;2022-12-20T06:47:00;10.90;99.90
7399;DHT22;3740;50.700;7.184;2022-12-20T06:49:26;10.90;99.90
7399;DHT22;3740;50.700;7.184;2022-12-20T06:51:51;10.90;99.90
7399;DHT22;3740;50.700;7.184;2022-12-20T06:54:17;10.80;99.90
7399;DHT22;3740;50.700;7.184;2022-12-20T06:56:42;10.80;99.90
7399;DHT22;3740;50.700;7.184;2022-12-20T06:59:08;10.90;99.90
7399;DHT22;3740;50.700;7.184;2022-12-20T07:01:33;10.90;99.90
7399;DHT22;3740;50.700;7.184;2022-12-20T07:03:59;11.00;99.90
7399;DHT22;3740;50.700;7.184;2022-12-20T07:06:24;11.00;99.90
7399;DHT22;3740;50.700;7.184;2022-12-20T07:08:51;11.10;99.90
7399;DHT22;3740;50.700;7.184;2022-12-20T07:11:16;11.10;99.90
7399;DHT22;3740;50.700;7.184;2022-12-20T07:13:42;11.30;99.90
7399;DHT22;3740;50.700;7.184;2022-12-20T07:16:08;11.40;99.90
7399;DHT22;3740;50.700;7.184;2022-12-20T07:18:34;11.60;99.90
7399;DHT22;3740;50.700;7.184;2022-12-20T07:21:04;11.50;99.90
7399;DHT22;3740;50.700;7.184;2022-12-20T07:23:30;11.60;99.90
7399;DHT22;3740;50.700;7.184;2022-12-20T07:25:57;11.50;99.90
7399;DHT22;3740;50.700;7.184;2022-12-20T07:28:24;11.60;99.90
7399;DHT22;3740;50.700;7.184;2022-12-20T07:30:50;11.60;99.90
7399;DHT22;3740;50.700;7.184;2022-12-20T07:33:16;11.70;99.90
7399;DHT22;3740;50.700;7.184;2022-12-20T07:35:42;11.80;99.90
7399;DHT22;3740;50.700;7.184;2022-12-20T07:38:10;11.90;99.90
7399;DHT22;3740;50.700;7.184;2022-12-20T07:40:38;11.90;99.90
7399;DHT22;3740;50.700;7.184;2022-12-20T07:43:03;11.90;99.90
7399;DHT22;3740;50.700;7.184;2022-12-20T07:45:29;11.90;99.90
7399;DHT22;3740;50.700;7.184;2022-12-20T07:47:54;11.80;99.90
7399;DHT22;3740;50.700;7.184;2022-12-20T07:50:21;11.80;99.90
7399;DHT22;3740;50.700;7.184;2022-12-20T07:52:48;11.80;99.90
7399;DHT22;3740;50.700;7.184;2022-12-20T07:55:15;11.80;99.90
7399;DHT22;3740;50.700;7.184;2022-12-20T07:57:44;11.90;99.90
7399;DHT22;3740;50.700;7.184;2022-12-20T08:00:12;12.00;99.90
7399;DHT22;3740;50.700;7.184;2022-12-20T08:02:45;12.00;99.90
7399;DHT22;3740;50.700;7.184;2022-12-20T08:05:11;12.00;99.90
7399;DHT22;3740;50.700;7.184;2022-12-20T08:07:39;12.00;99.90
7399;DHT22;3740;50.700;7.184;2022-12-20T08:10:06;11.90;99.90
7399;DHT22;3740;50.700;7.184;2022-12-20T08:12:33;11.90;99.90
7399;DHT22;3740;50.700;7.184;2022-12-20T08:14:58;11.80;99.90
7399;DHT22;3740;50.700;7.184;2022-12-20T08:17:24;11.90;99.90
7399;DHT22;3740;50.700;7.184;2022-12-20T08:19:50;11.90;99.90
7399;DHT22;3740;50.700;7.184;2022-12-20T08:22:17;11.90;99.90
7399;DHT22;3740;50.700;7.184;2022-12-20T08:24:43;11.90;99.90
7399;DHT22;3740;50.700;7.184;2022-12-20T08:27:09;11.90;99.90
7399;DHT22;3740;50.700;7.184;2022-12-20T08:29:34;11.90;99.90
7399;DHT22;3740;50.700;7.184;2022-12-20T08:32:00;11.90;99.90
7399;DHT22;3740;50.700;7.184;2022-12-20T08:34:26;12.00;99.90
7399;DHT22;3740;50.700;7.184;2022-12-20T08:36:52;12.10;99.90
7399;DHT22;3740;50.700;7.184;2022-12-20T08:39:17;12.10;99.90
7399;DHT22;3740;50.700;7.184;2022-12-20T08:41:43;12.00;99.90
7399;DHT22;3740;50.700;7.184;2022-12-20T08:44:08;12.00;99.90
7399;DHT22;3740;50.700;7.184;2022-12-20T08:46:35;12.00;99.90
7399;DHT22;3740;50.700;7.184;2022-12-20T08:49:04;12.00;99.90
7399;DHT22;3740;50.700;7.184;2022-12-20T08:51:30;12.00;99.90
7399;DHT22;3740;50.700;7.184;2022-12-20T08:53:55;12.10;99.90
7399;DHT22;3740;50.700;7.184;2022-12-20T08:56:21;12.10;99.90
7399;DHT22;3740;50.700;7.184;2022-12-20T08:58:47;12.10;99.90
7399;DHT22;3740;50.700;7.184;2022-12-20T09:01:15;12.20;99.90
7399;DHT22;3740;50.700;7.184;2022-12-20T09:03:41;12.10;99.90
7399;DHT22;3740;50.700;7.184;2022-12-20T09:06:13;12.00;99.90
7399;DHT22;3740;50.700;7.184;2022-12-20T09:08:39;12.00;99.90
7399;DHT22;3740;50.700;7.184;2022-12-20T09:11:06;12.10;99.90
7399;DHT22;3740;50.700;7.184;2022-12-20T09:13:32;12.10;99.90
7399;DHT22;3740;50.700;7.184;2022-12-20T09:16:02;12.10;99.90
7399;DHT22;3740;50.700;7.184;2022-12-20T09:18:30;12.00;99.90
7399;DHT22;3740;50.700;7.184;2022-12-20T09:20:59;12.10;99.90
7399;DHT22;3740;50.700;7.184;2022-12-20T09:23:26;12.10;99.90
7399;DHT22;3740;50.700;7.184;2022-12-20T09:25:51;12.10;99.90
7399;DHT22;3740;50.700;7.184;2022-12-20T09:28:17;12.00;99.90
7399;DHT22;3740;50.700;7.184;2022-12-20T09:30:42;11.90;99.90
7399;DHT22;3740;50.700;7.184;2022-12-20T09:33:08;11.90;99.90
7399;DHT22;3740;50.700;7.184;2022-12-20T09:35:34;11.90;99.90
7399;DHT22;3740;50.700;7.184;2022-12-20T09:37:59;12.00;99.90
7399;DHT22;3740;50.700;7.184;2022-12-20T09:40:29;12.00;99.90
7399;DHT22;3740;50.700;7.184;2022-12-20T09:42:55;12.00;99.90
7399;DHT22;3740;50.700;7.184;2022-12-20T09:45:26;12.00;99.90
7399;DHT22;3740;50.700;7.184;2022-12-20T09:47:53;12.00;99.90
7399;DHT22;3740;50.700;7.184;2022-12-20T09:50:20;12.00;99.90
7399;DHT22;3740;50.700;7.184;2022-12-20T09:58:16;12.30;99.90
7399;DHT22;3740;50.700;7.184;2022-12-20T10:00:48;12.30;99.90
7399;DHT22;3740;50.700;7.184;2022-12-20T10:03:30;12.30;99.90
7399;DHT22;3740;50.700;7.184;2022-12-20T10:08:49;12.20;99.90
7399;DHT22;3740;50.700;7.184;2022-12-20T10:16:49;12.20;99.90
7399;DHT22;3740;50.700;7.184;2022-12-20T10:19:32;12.20;99.90
7399;DHT22;3740;50.700;7.184;2022-12-20T10:22:17;12.30;99.90
7399;DHT22;3740;50.700;7.184;2022-12-20T10:24:52;12.30;99.90
7399;DHT22;3740;50.700;7.184;2022-12-20T10:27:20;12.30;99.90
7399;DHT22;3740;50.700;7.184;2022-12-20T10:29:48;12.20;99.90
7399;DHT22;3740;50.700;7.184;2022-12-20T10:32:18;12.10;99.90
7399;DHT22;3740;50.700;7.184;2022-12-20T10:35:14;12.20;99.90
7399;DHT22;3740;50.700;7.184;2022-12-20T10:38:06;12.20;99.90
7399;DHT22;3740;50.700;7.184;2022-12-20T10:40:35;12.20;99.90
7399;DHT22;3740;50.700;7.184;2022-12-20T10:43:02;12.20;99.90
7399;DHT22;3740;50.700;7.184;2022-12-20T10:45:37;12.20;99.90
7399;DHT22;3740;50.700;7.184;2022-12-20T10:48:27;12.10;99.90
7399;DHT22;3740;50.700;7.184;2022-12-20T10:53:30;12.10;99.90
7399;DHT22;3740;50.700;7.184;2022-12-20T10:56:27;12.00;99.90
7399;DHT22;3740;50.700;7.184;2022-12-20T10:59:21;12.00;99.90
7399;DHT22;3740;50.700;7.184;2022-12-20T11:01:48;12.00;99.90
7399;DHT22;3740;50.700;7.184;2022-12-20T11:04:31;12.00;99.90
7399;DHT22;3740;50.700;7.184;2022-12-20T11:06:59;12.00;99.90
7399;DHT22;3740;50.700;7.184;2022-12-20T11:09:30;12.00;99.90
7399;DHT22;3740;50.700;7.184;2022-12-20T11:12:12;12.00;99.90
7399;DHT22;3740;50.700;7.184;2022-12-20T11:14:39;12.10;99.90
7399;DHT22;3740;50.700;7.184;2022-12-20T11:17:32;12.10;99.90
7399;DHT22;3740;50.700;7.184;2022-12-20T11:26:15;12.30;99.90
7399;DHT22;3740;50.700;7.184;2022-12-20T11:31:15;12.50;99.90
7399;DHT22;3740;50.700;7.184;2022-12-20T11:39:44;12.60;99.90
7399;DHT22;3740;50.700;7.184;2022-12-20T11:42:49;12.60;99.90
7399;DHT22;3740;50.700;7.184;2022-12-20T11:51:03;12.40;99.90
7399;DHT22;3740;50.700;7.184;2022-12-20T11:53:44;12.40;99.90
7399;DHT22;3740;50.700;7.184;2022-12-20T11:56:17;12.50;99.90
7399;DHT22;3740;50.700;7.184;2022-12-20T11:58:50;12.60;99.90
7399;DHT22;3740;50.700;7.184;2022-12-20T12:01:20;12.60;99.90
7399;DHT22;3740;50.700;7.184;2022-12-20T12:06:30;12.70;99.90
7399;DHT22;3740;50.700;7.184;2022-12-20T12:09:07;12.80;99.90
7399;DHT22;3740;50.700;7.184;2022-12-20T12:11:40;12.80;99.90
7399;DHT22;3740;50.700;7.184;2022-12-20T12:14:16;12.80;99.90
7399;DHT22;3740;50.700;7.184;2022-12-20T12:16:46;12.70;99.90
7399;DHT22;3740;50.700;7.184;2022-12-20T12:19:14;12.60;99.90
7399;DHT22;3740;50.700;7.184;2022-12-20T12:21:45;12.60;99.90
7399;DHT22;3740;50.700;7.184;2022-12-20T12:24:43;12.60;99.90
7399;DHT22;3740;50.700;7.184;2022-12-20T12:27:21;12.70;99.90
7399;DHT22;3740;50.700;7.184;2022-12-20T12:29:47;12.80;99.90
7399;DHT22;3740;50.700;7.184;2022-12-20T12:32:39;12.90;99.90
7399;DHT22;3740;50.700;7.184;2022-12-20T12:40:56;12.80;99.90
7399;DHT22;3740;50.700;7.184;2022-12-20T12:43:53;12.80;99.90
7399;DHT22;3740;50.700;7.184;2022-12-20T12:46:29;12.80;99.90
7399;DHT22;3740;50.700;7.184;2022-12-20T12:49:13;12.70;99.90
7399;DHT22;3740;50.700;7.184;2022-12-20T12:51:43;12.70;99.90
7399;DHT22;3740;50.700;7.184;2022-12-20T12:54:37;12.80;99.90
7399;DHT22;3740;50.700;7.184;2022-12-20T13:04:30;12.80;99.90
7399;DHT22;3740;50.700;7.184;2022-12-20T13:07:40;12.80;99.90
7399;DHT22;3740;50.700;7.184;2022-12-20T13:17:50;12.80;99.90
7399;DHT22;3740;50.700;7.184;2022-12-20T13:20:21;12.90;99.90
7399;DHT22;3740;50.700;7.184;2022-12-20T13:25:36;12.80;99.90
7399;DHT22;3740;50.700;7.184;2022-12-20T13:30:45;12.70;99.90
7399;DHT22;3740;50.700;7.184;2022-12-20T13:33:20;12.70;99.90
7399;DHT22;3740;50.700;7.184;2022-12-20T13:36:44;12.70;99.90
7399;DHT22;3740;50.700;7.184;2022-12-20T13:43:47;12.60;99.90
7399;DHT22;3740;50.700;7.184;2022-12-20T13:46:30;12.60;99.90
7399;DHT22;3740;50.700;7.184;2022-12-20T13:49:01;12.60;99.90
7399;DHT22;3740;50.700;7.184;2022-12-20T13:51:29;12.50;99.90
7399;DHT22;3740;50.700;7.184;2022-12-20T13:53:55;12.50;99.90
7399;DHT22;3740;50.700;7.184;2022-12-20T13:56:39;12.60;99.90
7399;DHT22;3740;50.700;7.184;2022-12-20T13:59:14;12.70;99.90
7399;DHT22;3740;50.700;7.184;2022-12-20T14:01:50;12.70;99.90
7399;DHT22;3740;50.700;7.184;2022-12-20T14:04:18;12.80;99.90
7399;DHT22;3740;50.700;7.184;2022-12-20T14:06:53;12.80;99.90
7399;DHT22;3740;50.700;7.184;2022-12-20T14:09:36;12.80;99.90
7399;DHT22;3740;50.700;7.184;2022-12-20T14:12:11;12.80;99.90
7399;DHT22;3740;50.700;7.184;2022-12-20T14:14:38;12.70;99.90
7399;DHT22;3740;50.700;7.184;2022-12-20T14:17:29;12.90;99.90
7399;DHT22;3740;50.700;7.184;2022-12-20T14:22:37;12.90;99.90
7399;DHT22;3740;50.700;7.184;2022-12-20T14:25:06;12.80;99.90
7399;DHT22;3740;50.700;7.184;2022-12-20T14:27:35;12.80;99.90
7399;DHT22;3740;50.700;7.184;2022-12-20T14:30:03;12.80;99.90
7399;DHT22;3740;50.700;7.184;2022-12-20T14:32:28;12.80;99.90
7399;DHT22;3740;50.700;7.184;2022-12-20T14:34:54;12.80;99.90
7399;DHT22;3740;50.700;7.184;2022-12-20T14:42:37;12.70;99.90
7399;DHT22;3740;50.700;7.184;2022-12-20T14:47:29;12.60;99.90
7399;DHT22;3740;50.700;7.184;2022-12-20T14:49:57;12.60;99.90
7399;DHT22;3740;50.700;7.184;2022-12-20T14:52:35;12.80;99.90
7399;DHT22;3740;50.700;7.184;2022-12-20T14:55:10;12.70;99.90
7399;DHT22;3740;50.700;7.184;2022-12-20T14:57:55;12.70;99.90
7399;DHT22;3740;50.700;7.184;2022-12-20T15:00:25;12.70;99.90
7399;DHT22;3740;50.700;7.184;2022-12-20T15:08:30;12.70;99.90
7399;DHT22;3740;50.700;7.184;2022-12-20T15:13:37;12.60;99.90
7399;DHT22;3740;50.700;7.184;2022-12-20T15:18:30;12.70;99.90
7399;DHT22;3740;50.700;7.184;2022-12-20T15:23:47;12.80;99.90
7399;DHT22;3740;50.700;7.184;2022-12-20T15:26:15;12.70;99.90
7399;DHT22;3740;50.700;7.184;2022-12-20T15:28:41;12.70;99.90
7399;DHT22;3740;50.700;7.184;2022-12-20T15:31:10;12.70;99.90
7399;DHT22;3740;50.700;7.184;2022-12-20T15:33:37;12.70;99.90
7399;DHT22;3740;50.700;7.184;2022-12-20T15:36:03;12.60;99.90
7399;DHT22;3740;50.700;7.184;2022-12-20T15:38:29;12.60;99.90
7399;DHT22;3740;50.700;7.184;2022-12-20T15:41:01;12.60;99.90
7399;DHT22;3740;50.700;7.184;2022-12-20T15:43:27;12.60;99.90
7399;DHT22;3740;50.700;7.184;2022-12-20T15:45:56;12.60;99.90
7399;DHT22;3740;50.700;7.184;2022-12-20T15:48:22;12.60;99.90
7399;DHT22;3740;50.700;7.184;2022-12-20T15:50:56;12.60;99.90
7399;DHT22;3740;50.700;7.184;2022-12-20T15:53:33;12.60;99.90
7399;DHT22;3740;50.700;7.184;2022-12-20T15:55:59;12.70;99.90
7399;DHT22;3740;50.700;7.184;2022-12-20T15:58:26;12.60;99.90
7399;DHT22;3740;50.700;7.184;2022-12-20T16:00:57;12.70;99.90
7399;DHT22;3740;50.700;7.184;2022-12-20T16:03:28;12.70;99.90
7399;DHT22;3740;50.700;7.184;2022-12-20T16:05:54;12.80;99.90
7399;DHT22;3740;50.700;7.184;2022-12-20T16:08:20;12.70;99.90
7399;DHT22;3740;50.700;7.184;2022-12-20T16:10:47;12.80;99.90
7399;DHT22;3740;50.700;7.184;2022-12-20T16:13:15;12.80;99.90
7399;DHT22;3740;50.700;7.184;2022-12-20T16:15:42;12.80;99.90
7399;DHT22;3740;50.700;7.184;2022-12-20T16:18:07;12.80;99.90
7399;DHT22;3740;50.700;7.184;2022-12-20T16:20:33;12.80;99.90
7399;DHT22;3740;50.700;7.184;2022-12-20T16:23:00;12.90;99.90
7399;DHT22;3740;50.700;7.184;2022-12-20T16:25:31;12.80;99.90
7399;DHT22;3740;50.700;7.184;2022-12-20T16:27:57;12.70;99.90
7399;DHT22;3740;50.700;7.184;2022-12-20T16:30:23;12.70;99.90
7399;DHT22;3740;50.700;7.184;2022-12-20T16:32:49;12.60;99.90
7399;DHT22;3740;50.700;7.184;2022-12-20T16:35:32;12.60;99.90
7399;DHT22;3740;50.700;7.184;2022-12-20T16:37:59;12.60;99.90
7399;DHT22;3740;50.700;7.184;2022-12-20T16:40:30;12.60;99.90
7399;DHT22;3740;50.700;7.184;2022-12-20T16:42:56;12.50;99.90
7399;DHT22;3740;50.700;7.184;2022-12-20T16:45:25;12.50;99.90
7399;DHT22;3740;50.700;7.184;2022-12-20T16:47:51;12.40;99.90
7399;DHT22;3740;50.700;7.184;2022-12-20T16:50:18;12.40;99.90
7399;DHT22;3740;50.700;7.184;2022-12-20T16:52:44;12.40;99.90
7399;DHT22;3740;50.700;7.184;2022-12-20T16:55:18;12.40;99.90
7399;DHT22;3740;50.700;7.184;2022-12-20T16:57:44;12.50;99.90
7399;DHT22;3740;50.700;7.184;2022-12-20T17:00:16;12.60;99.90
7399;DHT22;3740;50.700;7.184;2022-12-20T17:02:42;12.60;99.90
7399;DHT22;3740;50.700;7.184;2022-12-20T17:05:50;12.60;99.90
7399;DHT22;3740;50.700;7.184;2022-12-20T17:08:08;12.60;99.90
7399;DHT22;3740;50.700;7.184;2022-12-20T17:10:34;12.50;99.90
7399;DHT22;3740;50.700;7.184;2022-12-20T17:12:59;12.50;99.90
7399;DHT22;3740;50.700;7.184;2022-12-20T17:15:28;12.50;99.90
7399;DHT22;3740;50.700;7.184;2022-12-20T17:17:54;12.50;99.90
7399;DHT22;3740;50.700;7.184;2022-12-20T17:20:21;12.50;99.90
7399;DHT22;3740;50.700;7.184;2022-12-20T17:22:50;12.40;99.90
7399;DHT22;3740;50.700;7.184;2022-12-20T17:25:25;12.40;99.90
7399;DHT22;3740;50.700;7.184;2022-12-20T17:27:51;12.40;99.90
7399;DHT22;3740;50.700;7.184;2022-12-20T17:30:17;12.30;99.90
7399;DHT22;3740;50.700;7.184;2022-12-20T17:32:43;12.30;99.90
7399;DHT22;3740;50.700;7.184;2022-12-20T17:37:48;12.30;99.90
7399;DHT22;3740;50.700;7.184;2022-12-20T17:40:16;12.20;99.90
7399;DHT22;3740;50.700;7.184;2022-12-20T17:42:42;12.20;99.90
7399;DHT22;3740;50.700;7.184;2022-12-20T17:47:44;12.20;99.90
7399;DHT22;3740;50.700;7.184;2022-12-20T17:50:10;12.10;99.90
7399;DHT22;3740;50.700;7.184;2022-12-20T17:52:35;12.00;99.90
7399;DHT22;3740;50.700;7.184;2022-12-20T17:55:01;11.90;99.90
7399;DHT22;3740;50.700;7.184;2022-12-20T17:57:27;11.90;99.90
7399;DHT22;3740;50.700;7.184;2022-12-20T17:59:52;12.00;99.90
7399;DHT22;3740;50.700;7.184;2022-12-20T18:02:20;12.10;99.90
7399;DHT22;3740;50.700;7.184;2022-12-20T18:04:46;12.20;99.90
7399;DHT22;3740;50.700;7.184;2022-12-20T18:07:11;12.20;99.90
7399;DHT22;3740;50.700;7.184;2022-12-20T18:09:38;12.30;99.90